Time;durP1;ratioP1;P1;durP2;ratioP2;P2;SDS_P1;SDS_P2;PMS_P1;PMS_P2;Temp;Humidity;BMP_temperature;BMP_pressure;BME280_temperature;BME280_humidity;BME280_pressure;Samples;Min_cycle;Max_cycle;Signal;HPM_P1;HPM_P2
2022/04/08 00:01:41;;;;;;;6.13;2.73;;;12.60;99.90;;;;;;5050110;28;20477;-67
2022/04/08 00:04:10;;;;;;;6.00;2.00;;;12.60;99.90;;;;;;5050441;28;20828;-68
2022/04/08 00:06:37;;;;;;;5.60;1.70;;;12.60;99.90;;;;;;5050319;28;20466;-67
2022/04/08 00:09:04;;;;;;;5.53;1.77;;;12.70;99.90;;;;;;5050370;28;20552;-67
2022/04/08 00:11:31;;;;;;;5.30;2.10;;;12.70;99.90;;;;;;5049879;28;20945;-68
2022/04/08 00:14:00;;;;;;;5.63;1.93;;;12.80;99.90;;;;;;5049693;28;20454;-67
2022/04/08 00:16:27;;;;;;;4.00;1.80;;;12.90;99.90;;;;;;5049828;28;20543;-66
2022/04/08 00:18:55;;;;;;;4.50;1.97;;;12.90;99.90;;;;;;5049939;28;20445;-67
2022/04/08 00:21:25;;;;;;;3.87;1.77;;;12.90;99.90;;;;;;5049726;28;20957;-68
2022/04/08 00:23:52;;;;;;;4.13;1.80;;;12.90;99.90;;;;;;5049806;28;20539;-67
2022/04/08 00:26:19;;;;;;;6.83;2.37;;;12.80;99.90;;;;;;5049330;28;20474;-69
2022/04/08 00:28:46;;;;;;;4.67;1.93;;;12.80;99.90;;;;;;5049785;28;20461;-67
2022/04/08 00:31:14;;;;;;;4.30;2.17;;;12.80;99.90;;;;;;5049598;28;20461;-67
2022/04/08 00:33:41;;;;;;;3.70;1.70;;;12.80;99.90;;;;;;5049405;28;20449;-68
2022/04/08 00:36:08;;;;;;;3.60;1.70;;;12.90;99.90;;;;;;5049713;28;20485;-67
2022/04/08 00:38:37;;;;;;;3.87;1.90;;;12.90;99.90;;;;;;5049529;28;20458;-67
2022/04/08 00:41:04;;;;;;;3.83;1.73;;;13.00;99.90;;;;;;5049733;28;20480;-68
2022/04/08 00:43:36;;;;;;;3.60;1.40;;;13.00;99.90;;;;;;5049563;28;20453;-67
2022/04/08 00:46:05;;;;;;;4.20;1.50;;;13.10;99.90;;;;;;5049598;28;20458;-67
2022/04/08 00:48:32;;;;;;;4.57;1.90;;;13.10;99.90;;;;;;5049007;28;20853;-66
2022/04/08 00:51:00;;;;;;;3.80;1.40;;;13.10;99.90;;;;;;5049430;28;20454;-67
2022/04/08 00:53:28;;;;;;;3.40;1.43;;;13.00;99.90;;;;;;5049471;28;20580;-67
2022/04/08 00:55:57;;;;;;;3.50;1.43;;;13.10;99.90;;;;;;5049204;28;20988;-67
2022/04/08 00:58:24;;;;;;;3.80;2.00;;;13.10;99.90;;;;;;5049473;28;20453;-68
2022/04/08 01:00:51;;;;;;;4.40;2.00;;;13.00;99.90;;;;;;5049449;28;20450;-67
2022/04/08 01:03:18;;;;;;;4.40;2.00;;;13.10;99.90;;;;;;5049004;28;20454;-68
2022/04/08 01:05:47;;;;;;;5.20;1.90;;;12.90;99.90;;;;;;5049169;28;20457;-67
2022/04/08 01:08:17;;;;;;;4.30;1.93;;;12.90;99.90;;;;;;5049219;28;20523;-67
2022/04/08 01:10:44;;;;;;;3.57;1.63;;;13.00;99.90;;;;;;5048957;28;20745;-66
2022/04/08 01:13:13;;;;;;;4.20;1.60;;;12.90;99.90;;;;;;5049337;28;20528;-67
2022/04/08 01:15:40;;;;;;;4.80;2.17;;;12.90;99.90;;;;;;5049459;28;20457;-67
2022/04/08 01:18:08;;;;;;;4.10;1.70;;;12.90;99.90;;;;;;5049143;28;20515;-67
2022/04/08 01:20:35;;;;;;;5.07;1.90;;;12.90;99.90;;;;;;5049220;28;20545;-66
2022/04/08 01:23:03;;;;;;;4.87;1.80;;;12.90;99.90;;;;;;5049035;28;20507;-68
2022/04/08 01:25:31;;;;;;;4.00;2.17;;;12.90;99.90;;;;;;5049232;28;20912;-68
2022/04/08 01:27:59;;;;;;;6.90;2.13;;;12.90;99.90;;;;;;5049043;28;20474;-67
2022/04/08 01:30:26;;;;;;;4.33;2.10;;;13.00;99.90;;;;;;5049181;28;20461;-67
2022/04/08 01:32:53;;;;;;;4.13;1.90;;;13.00;99.90;;;;;;5049033;28;20446;-66
2022/04/08 01:35:20;;;;;;;5.80;2.10;;;13.10;99.90;;;;;;5049066;28;20462;-69
2022/04/08 01:37:47;;;;;;;4.50;2.00;;;13.10;99.90;;;;;;5048958;28;20500;-68
2022/04/08 01:40:14;;;;;;;3.57;1.57;;;13.10;99.90;;;;;;5049058;28;20505;-66
2022/04/08 01:42:43;;;;;;;4.00;2.00;;;12.90;99.90;;;;;;5049052;28;20507;-67
2022/04/08 01:45:11;;;;;;;5.40;2.33;;;12.90;99.90;;;;;;5048953;28;20445;-68
2022/04/08 01:47:38;;;;;;;3.87;1.90;;;12.90;99.90;;;;;;5048637;28;20466;-67
2022/04/08 01:50:07;;;;;;;4.67;1.57;;;12.90;99.90;;;;;;5048801;28;20486;-68
2022/04/08 01:52:34;;;;;;;4.33;2.20;;;12.80;99.90;;;;;;5049083;28;20450;-67
2022/04/08 01:55:05;;;;;;;3.60;1.80;;;12.80;99.90;;;;;;5049017;28;20548;-66
2022/04/08 01:57:33;;;;;;;7.87;3.80;;;12.90;99.90;;;;;;5048972;28;21243;-66
2022/04/08 02:00:02;;;;;;;3.90;2.30;;;12.90;99.90;;;;;;5051126;28;20534;-67
2022/04/08 02:02:29;;;;;;;3.63;1.70;;;12.80;99.90;;;;;;5052204;28;20789;-66
2022/04/08 02:04:56;;;;;;;4.77;1.83;;;12.70;99.90;;;;;;5052244;28;20468;-67
2022/04/08 02:07:23;;;;;;;3.53;1.50;;;12.80;99.90;;;;;;5052413;28;20999;-67
2022/04/08 02:09:50;;;;;;;5.83;1.50;;;12.70;99.90;;;;;;5052361;28;20462;-67
2022/04/08 02:12:18;;;;;;;3.63;1.70;;;12.80;99.90;;;;;;5052263;28;20458;-68
2022/04/08 02:14:45;;;;;;;5.40;2.07;;;12.80;99.90;;;;;;5052219;28;20458;-68
2022/04/08 02:17:14;;;;;;;5.07;2.10;;;12.90;99.90;;;;;;5052244;28;20525;-67
2022/04/08 02:19:41;;;;;;;4.13;1.73;;;12.90;99.90;;;;;;5052154;28;20492;-67
2022/04/08 02:22:08;;;;;;;4.47;1.73;;;12.90;99.90;;;;;;5052230;28;20480;-67
2022/04/08 02:24:35;;;;;;;4.10;2.07;;;13.00;99.90;;;;;;5052239;28;20461;-66
2022/04/08 02:27:05;;;;;;;4.00;1.87;;;13.00;99.90;;;;;;5051803;28;20465;-67
2022/04/08 02:29:33;;;;;;;6.00;2.17;;;12.90;99.90;;;;;;5051942;28;20499;-68
2022/04/08 02:32:00;;;;;;;3.87;1.87;;;12.90;99.90;;;;;;5052000;28;20460;-67
2022/04/08 02:34:29;;;;;;;6.27;1.87;;;13.00;99.90;;;;;;5051907;28;20446;-67
2022/04/08 02:36:56;;;;;;;4.03;1.80;;;13.00;99.90;;;;;;5051404;28;20860;-67
2022/04/08 02:39:23;;;;;;;5.00;2.13;;;13.00;99.90;;;;;;5051587;28;21007;-68
2022/04/08 02:41:50;;;;;;;4.30;1.67;;;13.10;99.90;;;;;;5051725;28;20864;-68
2022/04/08 02:44:17;;;;;;;3.67;1.63;;;13.10;99.90;;;;;;5051329;28;20453;-68
2022/04/08 02:46:44;;;;;;;3.70;1.63;;;13.10;99.90;;;;;;5051736;28;20470;-67
2022/04/08 02:49:11;;;;;;;4.00;1.70;;;13.00;99.90;;;;;;5051560;28;20878;-67
2022/04/08 02:51:41;;;;;;;4.27;1.30;;;13.00;99.90;;;;;;5051538;28;20786;-67
2022/04/08 02:54:10;;;;;;;4.30;1.87;;;13.10;99.90;;;;;;5051226;28;20479;-68
2022/04/08 02:56:41;;;;;;;5.60;1.70;;;13.10;99.90;;;;;;5051117;28;20988;-68
2022/04/08 02:59:08;;;;;;;4.80;1.80;;;13.00;99.90;;;;;;5051443;28;20549;-66
2022/04/08 03:01:35;;;;;;;4.47;1.40;;;12.90;99.90;;;;;;5051414;28;20464;-66
2022/04/08 03:04:05;;;;;;;3.87;1.67;;;13.00;99.90;;;;;;5051405;28;20477;-66
2022/04/08 03:06:32;;;;;;;4.20;1.53;;;13.00;99.90;;;;;;5050813;28;20989;-67
2022/04/08 03:09:01;;;;;;;4.00;1.80;;;13.00;99.90;;;;;;5051085;28;20454;-67
2022/04/08 03:11:28;;;;;;;4.10;1.30;;;13.00;99.90;;;;;;5050869;28;20454;-66
2022/04/08 03:13:59;;;;;;;4.67;1.50;;;13.00;99.90;;;;;;5051037;28;20814;-68
2022/04/08 03:16:26;;;;;;;3.47;1.30;;;12.90;99.90;;;;;;5051235;28;20539;-67
2022/04/08 03:18:53;;;;;;;3.90;1.80;;;13.00;99.90;;;;;;5050773;28;20493;-66
2022/04/08 03:21:20;;;;;;;6.10;1.67;;;12.90;99.90;;;;;;5050963;28;20453;-66
2022/04/08 03:23:48;;;;;;;4.70;2.30;;;13.00;99.90;;;;;;5051138;28;20894;-67
2022/04/08 03:26:17;;;;;;;4.70;2.20;;;12.90;99.90;;;;;;5050835;28;20561;-67
2022/04/08 03:28:44;;;;;;;3.63;1.40;;;12.90;99.90;;;;;;5051277;28;20446;-67
2022/04/08 03:31:12;;;;;;;5.17;1.30;;;12.90;99.90;;;;;;5050978;28;20445;-67
2022/04/08 03:33:39;;;;;;;3.50;1.37;;;12.90;99.90;;;;;;5050652;28;20508;-67
2022/04/08 03:36:07;;;;;;;4.10;1.70;;;12.90;99.90;;;;;;5050467;28;20453;-68
2022/04/08 03:38:34;;;;;;;4.43;1.60;;;12.80;99.90;;;;;;5050637;28;20494;-67
2022/04/08 03:41:01;;;;;;;3.43;1.33;;;12.80;99.90;;;;;;5050754;28;20561;-66
2022/04/08 03:43:30;;;;;;;4.03;1.43;;;12.80;99.90;;;;;;5050645;28;20838;-67
2022/04/08 03:45:57;;;;;;;3.47;1.30;;;12.60;99.90;;;;;;5050202;28;20454;-67
2022/04/08 03:48:24;;;;;;;3.43;1.30;;;12.70;99.90;;;;;;5049866;28;20565;-69
2022/04/08 03:50:52;;;;;;;3.20;1.00;;;12.60;99.90;;;;;;5050523;28;20453;-67
2022/04/08 03:53:20;;;;;;;5.10;1.40;;;12.60;99.90;;;;;;5050531;28;20817;-67
2022/04/08 03:55:47;;;;;;;4.13;1.40;;;12.60;99.90;;;;;;5050544;28;20453;-67
2022/04/08 03:58:14;;;;;;;3.50;1.50;;;12.50;99.90;;;;;;5050267;28;20962;-67
2022/04/08 04:00:43;;;;;;;3.10;1.10;;;12.70;99.90;;;;;;5049858;28;20457;-68
2022/04/08 04:03:10;;;;;;;4.20;1.60;;;12.70;99.90;;;;;;5049873;28;20460;-67
2022/04/08 04:05:37;;;;;;;5.73;1.10;;;12.60;99.90;;;;;;5049889;28;20978;-66
2022/04/08 04:08:05;;;;;;;3.10;1.00;;;12.60;99.90;;;;;;5049995;28;20970;-68
2022/04/08 04:10:32;;;;;;;4.30;1.60;;;12.60;99.90;;;;;;5050252;28;20982;-68
2022/04/08 04:12:59;;;;;;;4.40;1.70;;;12.70;99.90;;;;;;5049632;28;20458;-67
2022/04/08 04:15:26;;;;;;;3.13;1.00;;;12.70;99.90;;;;;;5050088;28;20987;-68
2022/04/08 04:17:54;;;;;;;3.33;1.23;;;12.80;99.90;;;;;;5049893;28;20494;-68
2022/04/08 04:20:21;;;;;;;3.70;1.30;;;13.00;99.90;;;;;;5050082;28;20458;-68
2022/04/08 04:22:48;;;;;;;8.13;1.67;;;13.00;99.90;;;;;;5049685;28;20449;-67
2022/04/08 04:25:15;;;;;;;4.07;1.20;;;13.00;99.90;;;;;;5049965;28;20462;-66
2022/04/08 04:27:42;;;;;;;6.03;1.50;;;13.00;99.90;;;;;;5049494;28;20514;-67
2022/04/08 04:30:11;;;;;;;3.90;1.60;;;13.00;99.90;;;;;;5049674;28;20496;-69
2022/04/08 04:32:38;;;;;;;5.80;3.07;;;13.10;99.90;;;;;;5049821;28;20458;-68
2022/04/08 04:35:07;;;;;;;6.60;3.90;;;13.10;99.90;;;;;;5049889;28;20917;-67
2022/04/08 04:37:35;;;;;;;6.47;4.30;;;13.00;99.90;;;;;;5049533;28;20490;-66
2022/04/08 04:40:02;;;;;;;8.53;4.60;;;12.90;99.90;;;;;;5049656;28;20473;-67
2022/04/08 04:42:29;;;;;;;7.00;3.90;;;12.80;99.90;;;;;;5049454;28;20457;-67
2022/04/08 04:44:56;;;;;;;8.17;4.93;;;12.80;99.90;;;;;;5049435;28;20453;-67
2022/04/08 04:47:24;;;;;;;5.47;3.40;;;12.50;99.90;;;;;;5049351;28;20473;-67
2022/04/08 04:49:51;;;;;;;8.37;4.67;;;12.60;99.90;;;;;;5049458;28;20493;-67
2022/04/08 04:52:19;;;;;;;8.77;4.80;;;12.60;99.90;;;;;;5049593;28;20461;-68
2022/04/08 04:54:46;;;;;;;8.30;4.00;;;12.50;99.90;;;;;;5050092;28;20504;-79
2022/04/08 04:57:13;;;;;;;5.47;3.53;;;12.40;99.90;;;;;;5049560;28;20466;-78
2022/04/08 04:59:40;;;;;;;8.53;4.53;;;12.50;99.90;;;;;;5049653;28;20454;-80
2022/04/08 05:02:08;;;;;;;5.63;4.03;;;12.30;99.90;;;;;;5049779;28;20454;-81
2022/04/08 05:04:35;;;;;;;8.33;5.00;;;12.20;99.90;;;;;;5049591;28;20456;-77
2022/04/08 05:07:02;;;;;;;8.73;4.37;;;12.30;99.90;;;;;;5049642;28;20809;-80
2022/04/08 05:09:30;;;;;;;10.73;4.77;;;12.50;99.90;;;;;;5049205;28;20446;-78
2022/04/08 05:11:57;;;;;;;6.50;4.27;;;12.70;99.90;;;;;;5049430;28;20454;-79
2022/04/08 05:14:24;;;;;;;7.80;4.20;;;12.80;99.90;;;;;;5049375;28;20458;-77
2022/04/08 05:16:52;;;;;;;6.27;3.87;;;13.10;99.90;;;;;;5049355;28;20473;-77
2022/04/08 05:19:19;;;;;;;9.37;4.20;;;13.10;99.90;;;;;;5049460;28;20920;-75
2022/04/08 05:21:46;;;;;;;8.30;4.60;;;13.00;99.90;;;;;;5049367;28;20900;-75
2022/04/08 05:24:13;;;;;;;8.17;4.53;;;12.90;99.90;;;;;;5049180;28;20986;-72
2022/04/08 05:26:41;;;;;;;7.93;3.80;;;12.80;99.90;;;;;;5049389;28;20572;-68
2022/04/08 05:29:08;;;;;;;9.07;4.33;;;12.80;99.90;;;;;;5049076;28;20465;-68
2022/04/08 05:31:35;;;;;;;11.63;5.10;;;12.90;99.90;;;;;;5049060;28;20942;-69
2022/04/08 05:34:02;;;;;;;7.07;3.80;;;13.00;99.90;;;;;;5050123;28;20458;-69
2022/04/08 05:36:29;;;;;;;9.60;4.80;;;12.90;99.90;;;;;;5052624;28;20480;-69
2022/04/08 05:38:57;;;;;;;10.20;5.60;;;13.00;99.90;;;;;;5052804;28;20489;-70
2022/04/08 05:41:24;;;;;;;8.63;5.10;;;13.30;99.90;;;;;;5052748;28;20449;-69
2022/04/08 05:43:53;;;;;;;7.90;4.90;;;13.40;99.90;;;;;;5052408;28;20445;-74
2022/04/08 05:46:20;;;;;;;9.27;5.23;;;13.60;99.90;;;;;;5054659;28;20478;-71
2022/04/08 05:48:47;;;;;;;9.10;4.00;;;13.70;99.90;;;;;;5053379;28;20482;-76
2022/04/08 05:51:14;;;;;;;11.43;4.60;;;13.60;99.90;;;;;;5052824;28;20445;-78
2022/04/08 05:53:41;;;;;;;5.83;3.37;;;13.50;99.90;;;;;;5052844;28;20449;-75
2022/04/08 05:56:08;;;;;;;7.23;4.17;;;13.60;99.90;;;;;;5052639;28;20446;-80
2022/04/08 05:58:35;;;;;;;7.63;3.67;;;13.70;99.90;;;;;;5053098;28;20485;-77
2022/04/08 06:01:04;;;;;;;8.63;4.10;;;13.70;99.90;;;;;;5052905;28;20462;-80
2022/04/08 06:03:31;;;;;;;6.70;4.20;;;13.80;99.90;;;;;;5052840;28;20458;-76
2022/04/08 06:05:58;;;;;;;6.67;4.13;;;13.90;99.90;;;;;;5052765;28;20798;-79
2022/04/08 06:08:25;;;;;;;19.20;10.70;;;14.10;99.90;;;;;;5052405;28;20446;-74
2022/04/08 06:10:52;;;;;;;8.43;4.60;;;14.20;99.90;;;;;;5052542;28;20457;-75
2022/04/08 06:13:24;;;;;;;6.93;4.10;;;14.20;99.90;;;;;;5051349;28;20943;-76
2022/04/08 06:15:51;;;;;;;7.97;4.40;;;14.40;99.90;;;;;;5058515;28;20458;-76
2022/04/08 06:18:20;;;;;;;8.57;4.23;;;14.60;99.90;;;;;;5057213;28;20513;-75
2022/04/08 06:20:47;;;;;;;7.30;3.60;;;14.90;99.90;;;;;;5055611;28;20458;-69
2022/04/08 06:23:15;;;;;;;9.70;4.97;;;15.00;99.90;;;;;;5052126;28;20476;-68
2022/04/08 06:25:42;;;;;;;11.60;3.93;;;15.20;99.90;;;;;;5052505;28;20454;-78
2022/04/08 06:28:09;;;;;;;7.80;3.57;;;15.40;99.90;;;;;;5052295;28;20975;-71
2022/04/08 06:30:37;;;;;;;8.40;3.77;;;15.70;99.90;;;;;;5051601;28;20532;-73
2022/04/08 06:33:05;;;;;;;5.10;2.73;;;15.80;99.90;;;;;;5051672;28;20453;-71
2022/04/08 06:35:35;;;;;;;4.10;2.10;;;15.90;99.90;;;;;;5051697;28;20454;-72
2022/04/08 06:38:02;;;;;;;5.37;2.60;;;15.70;99.90;;;;;;5051813;28;20489;-74
2022/04/08 06:40:32;;;;;;;10.40;2.03;;;15.80;99.90;;;;;;5052156;28;20457;-70
2022/04/08 06:43:00;;;;;;;4.80;1.70;;;15.90;99.90;;;;;;5052447;28;20548;-72
2022/04/08 06:45:28;;;;;;;8.17;3.93;;;15.90;97.40;;;;;;5051234;28;20825;-67
2022/04/08 06:47:55;;;;;;;6.87;4.30;;;15.60;99.90;;;;;;5051272;28;20488;-68
2022/04/08 06:50:23;;;;;;;4.03;1.80;;;15.40;99.90;;;;;;5051724;28;20456;-67
2022/04/08 06:52:51;;;;;;;4.17;2.10;;;15.40;95.60;;;;;;5051677;28;20462;-66
2022/04/08 06:55:19;;;;;;;5.90;2.17;;;15.60;95.20;;;;;;5051570;28;20456;-66
2022/04/08 06:57:46;;;;;;;5.97;2.30;;;15.90;94.80;;;;;;5051307;28;20544;-67
2022/04/08 07:00:14;;;;;;;5.10;2.20;;;16.20;93.80;;;;;;5051108;28;20825;-67
2022/04/08 07:02:41;;;;;;;4.30;1.90;;;16.40;93.20;;;;;;5051419;28;20461;-68
2022/04/08 07:05:09;;;;;;;4.20;1.77;;;16.70;93.00;;;;;;5051594;28;20462;-67
2022/04/08 07:07:39;;;;;;;4.40;2.20;;;16.90;92.40;;;;;;5051279;28;20465;-68
2022/04/08 07:10:08;;;;;;;4.07;1.83;;;17.10;90.50;;;;;;5050860;28;20854;-68
2022/04/08 07:12:36;;;;;;;4.10;1.70;;;17.00;88.60;;;;;;5051210;28;20454;-68
2022/04/08 07:15:03;;;;;;;4.17;1.70;;;16.90;88.10;;;;;;5051196;28;20926;-67
2022/04/08 07:17:31;;;;;;;4.70;2.37;;;17.00;87.70;;;;;;5051100;28;20687;-67
2022/04/08 07:19:59;;;;;;;5.53;1.80;;;16.90;85.70;;;;;;5051070;28;20504;-67
2022/04/08 07:22:27;;;;;;;4.70;1.57;;;17.10;88.00;;;;;;5051024;28;20535;-68
2022/04/08 07:24:55;;;;;;;4.70;1.93;;;17.40;84.50;;;;;;5050913;28;20461;-66
2022/04/08 07:27:23;;;;;;;4.73;1.87;;;17.20;84.20;;;;;;5050730;28;20483;-66
2022/04/08 07:29:51;;;;;;;4.70;1.60;;;17.10;83.90;;;;;;5050698;28;20442;-67
2022/04/08 07:32:21;;;;;;;3.97;1.63;;;17.20;85.50;;;;;;5050871;28;20559;-69
2022/04/08 07:34:49;;;;;;;3.97;1.90;;;17.50;85.00;;;;;;5050955;28;20486;-69
2022/04/08 07:37:27;;;;;;;5.37;2.17;;;17.60;84.30;;;;;;5050707;28;20466;-68
2022/04/08 07:39:54;;;;;;;4.90;2.17;;;17.80;84.10;;;;;;5050329;28;20493;-67
2022/04/08 07:42:22;;;;;;;6.10;2.30;;;17.80;82.50;;;;;;5050768;28;20921;-66
2022/04/08 07:44:50;;;;;;;6.80;2.10;;;17.80;82.30;;;;;;5050543;28;20461;-66
2022/04/08 07:47:18;;;;;;;6.00;2.23;;;17.80;84.60;;;;;;5050569;28;20470;-67
2022/04/08 07:49:45;;;;;;;4.13;1.73;;;17.90;88.80;;;;;;5049854;28;20486;-67
2022/04/08 07:52:12;;;;;;;5.70;2.00;;;18.10;90.90;;;;;;5050344;28;20482;-67
2022/04/08 07:54:39;;;;;;;6.00;2.23;;;18.10;91.90;;;;;;5050216;28;20472;-68
2022/04/08 07:57:06;;;;;;;5.23;2.10;;;18.10;92.50;;;;;;5049591;28;20470;-68
2022/04/08 07:59:34;;;;;;;4.47;1.73;;;18.20;92.50;;;;;;5050114;28;20485;-66
2022/04/08 08:02:01;;;;;;;4.30;2.03;;;18.10;92.70;;;;;;5050186;28;20446;-68
2022/04/08 08:04:28;;;;;;;5.10;1.87;;;18.30;92.70;;;;;;5049930;28;20450;-67
2022/04/08 08:06:56;;;;;;;5.63;2.03;;;18.50;92.50;;;;;;5049623;28;20506;-67
2022/04/08 08:09:23;;;;;;;4.83;2.10;;;18.70;91.40;;;;;;5049648;28;20449;-67
2022/04/08 08:11:50;;;;;;;4.70;1.73;;;18.90;90.10;;;;;;5050022;28;20506;-67
2022/04/08 08:14:17;;;;;;;4.83;1.77;;;19.00;81.40;;;;;;5049955;28;20796;-66
2022/04/08 08:16:45;;;;;;;4.20;2.20;;;18.80;78.20;;;;;;5049802;28;20462;-67
2022/04/08 08:19:13;;;;;;;5.73;2.30;;;18.80;77.10;;;;;;5049456;28;20997;-67
2022/04/08 08:21:40;;;;;;;7.37;2.10;;;19.10;77.00;;;;;;5049735;28;20536;-66
2022/04/08 08:24:08;;;;;;;3.90;1.73;;;19.20;73.80;;;;;;5049818;28;20934;-67
2022/04/08 08:26:35;;;;;;;4.47;1.90;;;19.10;72.90;;;;;;5049513;28;20917;-65
2022/04/08 08:29:02;;;;;;;4.30;1.47;;;19.00;72.00;;;;;;5050029;28;20456;-66
2022/04/08 08:31:29;;;;;;;4.03;1.33;;;18.90;71.00;;;;;;5050011;28;20561;-66
2022/04/08 08:33:57;;;;;;;4.40;1.93;;;19.00;72.00;;;;;;5049656;28;20825;-67
2022/04/08 08:36:24;;;;;;;5.00;2.13;;;19.20;72.90;;;;;;5049719;28;20469;-66
2022/04/08 08:38:51;;;;;;;5.67;2.10;;;19.40;71.80;;;;;;5049562;28;20481;-67
2022/04/08 08:41:20;;;;;;;4.10;1.50;;;19.20;71.00;;;;;;5049621;28;20450;-66
2022/04/08 08:43:48;;;;;;;4.43;1.93;;;19.00;69.40;;;;;;5049601;28;20496;-67
2022/04/08 08:46:16;;;;;;;4.63;2.23;;;18.90;69.70;;;;;;5049458;28;20476;-65
2022/04/08 08:48:44;;;;;;;5.20;1.87;;;19.10;70.60;;;;;;5048937;28;20498;-67
2022/04/08 08:51:14;;;;;;;4.07;2.00;;;19.30;70.50;;;;;;5049133;28;20946;-68
2022/04/08 08:53:42;;;;;;;4.50;2.20;;;19.50;71.30;;;;;;5049194;28;20776;-67
2022/04/08 08:56:10;;;;;;;4.37;1.77;;;19.50;71.00;;;;;;5048627;28;20450;-68
2022/04/08 08:58:37;;;;;;;10.40;6.27;;;19.80;70.70;;;;;;5049165;28;20446;-67
2022/04/08 09:01:04;;;;;;;4.87;2.03;;;19.30;69.50;;;;;;5049161;28;20485;-67
2022/04/08 09:03:31;;;;;;;5.10;2.90;;;19.20;70.10;;;;;;5048982;28;20484;-68
2022/04/08 09:06:06;;;;;;;4.30;1.87;;;19.30;71.20;;;;;;5049132;28;20540;-67
2022/04/08 09:08:35;;;;;;;5.90;1.70;;;19.50;69.60;;;;;;5050690;28;20457;-66
2022/04/08 09:11:03;;;;;;;5.40;1.43;;;19.50;69.60;;;;;;5053274;28;20446;-67
2022/04/08 09:13:30;;;;;;;5.00;2.00;;;20.00;71.30;;;;;;5053177;28;20461;-66
2022/04/08 09:15:59;;;;;;;5.40;2.00;;;20.20;69.10;;;;;;5053168;28;20469;-66
2022/04/08 09:18:30;;;;;;;3.90;1.70;;;20.30;68.60;;;;;;5053030;28;20465;-66
2022/04/08 09:20:58;;;;;;;4.40;1.60;;;20.50;68.70;;;;;;5053057;28;20446;-66
2022/04/08 09:23:28;;;;;;;4.73;1.60;;;20.50;68.50;;;;;;5052773;28;20541;-69
2022/04/08 09:26:02;;;;;;;5.00;2.10;;;20.80;69.50;;;;;;5052900;28;20457;-66
2022/04/08 09:28:34;;;;;;;5.13;2.27;;;21.00;68.50;;;;;;5052639;28;20802;-66
2022/04/08 09:31:02;;;;;;;4.90;2.70;;;21.00;66.50;;;;;;5052930;28;20593;-66
2022/04/08 09:33:30;;;;;;;4.60;2.20;;;21.10;66.70;;;;;;5052987;28;20449;-66
2022/04/08 09:35:59;;;;;;;4.10;1.70;;;21.20;66.70;;;;;;5052760;28;20450;-66
2022/04/08 09:38:27;;;;;;;8.23;1.90;;;21.20;68.30;;;;;;5052558;28;20461;-66
2022/04/08 09:41:02;;;;;;;4.07;1.67;;;21.50;69.00;;;;;;5052390;28;21032;-66
2022/04/08 09:43:33;;;;;;;5.43;2.00;;;21.70;69.80;;;;;;5052492;28;20540;-67
2022/04/08 09:46:14;;;;;;;5.00;1.73;;;21.70;69.90;;;;;;5052584;28;20540;-67
2022/04/08 09:48:41;;;;;;;4.03;1.57;;;21.80;69.00;;;;;;5052268;28;20606;-66
2022/04/08 09:51:10;;;;;;;4.23;1.37;;;21.90;66.10;;;;;;5052596;28;20446;-68
2022/04/08 09:53:38;;;;;;;4.37;1.83;;;21.80;65.50;;;;;;5052761;28;20564;-67
2022/04/08 09:56:16;;;;;;;4.50;1.50;;;21.90;65.60;;;;;;5052587;28;20489;-67
2022/04/08 09:58:49;;;;;;;3.80;1.60;;;21.90;65.50;;;;;;5052447;28;20824;-67
2022/04/08 10:01:17;;;;;;;7.10;1.80;;;22.10;66.40;;;;;;5052007;28;20499;-67
2022/04/08 10:03:44;;;;;;;3.60;1.57;;;22.10;65.30;;;;;;5052026;28;20485;-67
2022/04/08 10:06:13;;;;;;;4.60;1.80;;;22.10;64.60;;;;;;5052074;28;20481;-67
2022/04/08 10:08:41;;;;;;;11.47;6.40;;;22.20;64.50;;;;;;5052065;28;20948;-67
2022/04/08 10:11:16;;;;;;;5.20;2.30;;;22.40;65.50;;;;;;5052154;28;20446;-67
2022/04/08 10:13:52;;;;;;;4.13;2.00;;;22.60;66.20;;;;;;5052171;28;20457;-67
2022/04/08 10:16:21;;;;;;;6.80;1.63;;;22.70;66.20;;;;;;5051962;28;20481;-67
2022/04/08 10:18:50;;;;;;;5.07;1.63;;;22.80;67.00;;;;;;5051929;28;20457;-66
2022/04/08 10:21:17;;;;;;;4.30;1.80;;;23.10;67.10;;;;;;5051206;28;20979;-66
2022/04/08 10:23:49;;;;;;;5.80;1.60;;;23.50;67.70;;;;;;5051945;28;20453;-66
2022/04/08 10:26:20;;;;;;;8.53;2.23;;;23.50;64.70;;;;;;5051561;28;20553;-66
2022/04/08 10:28:47;;;;;;;9.63;2.50;;;23.80;64.10;;;;;;5051950;28;20747;-66
2022/04/08 10:31:16;;;;;;;3.80;1.60;;;23.80;63.20;;;;;;5051944;28;20826;-66
2022/04/08 10:33:48;;;;;;;8.50;2.00;;;23.80;63.80;;;;;;5051933;28;20517;-66
2022/04/08 10:36:15;;;;;;;5.17;2.50;;;24.00;63.50;;;;;;5051393;28;20465;-66
2022/04/08 10:38:42;;;;;;;7.00;2.17;;;24.20;62.80;;;;;;5051437;28;20458;-65
2022/04/08 10:41:11;;;;;;;3.70;1.30;;;24.40;63.00;;;;;;5051274;28;20489;-65
2022/04/08 10:43:46;;;;;;;3.90;1.60;;;24.40;61.20;;;;;;5051543;28;20469;-66
2022/04/08 10:46:13;;;;;;;7.80;2.10;;;24.30;61.10;;;;;;5051382;28;20931;-66
2022/04/08 10:48:40;;;;;;;4.93;1.87;;;24.50;61.00;;;;;;5051001;28;20572;-68
2022/04/08 10:51:12;;;;;;;4.20;1.80;;;24.80;60.90;;;;;;5051307;28;20450;-66
2022/04/08 10:53:41;;;;;;;4.50;1.80;;;25.10;60.30;;;;;;5051182;28;20476;-67
2022/04/08 10:56:10;;;;;;;4.63;2.00;;;25.30;58.50;;;;;;5051315;28;20997;-65
2022/04/08 10:58:42;;;;;;;5.97;1.90;;;25.40;58.70;;;;;;5051231;28;20450;-65
2022/04/08 11:01:22;;;;;;;4.00;1.67;;;25.50;57.60;;;;;;5051233;28;20583;-66
2022/04/08 11:03:58;;;;;;;4.30;1.80;;;25.50;57.80;;;;;;5051338;28;20512;-68
2022/04/08 11:06:27;;;;;;;7.50;1.87;;;25.70;57.30;;;;;;5050726;28;20672;-68
2022/04/08 11:08:54;;;;;;;5.37;1.53;;;25.60;56.20;;;;;;5050807;28;20454;-73
2022/04/08 11:11:28;;;;;;;7.77;1.80;;;26.00;56.00;;;;;;5050539;28;20452;-73
2022/04/08 11:13:56;;;;;;;4.30;1.70;;;26.10;54.70;;;;;;5050055;28;20471;-67
2022/04/08 11:16:28;;;;;;;8.20;3.83;;;26.00;54.30;;;;;;5047955;28;20875;-67
2022/04/08 11:18:55;;;;;;;5.17;2.00;;;26.00;55.50;;;;;;5048221;28;20965;-69
2022/04/08 11:21:24;;;;;;;6.00;1.70;;;26.20;54.60;;;;;;5049259;28;20500;-67
2022/04/08 11:24:00;;;;;;;3.70;1.10;;;26.10;51.30;;;;;;5049624;28;20456;-68
2022/04/08 11:26:30;;;;;;;3.97;1.30;;;26.10;49.40;;;;;;5049327;28;20477;-68
2022/04/08 11:28:57;;;;;;;4.03;1.50;;;26.20;46.90;;;;;;5049577;28;20804;-68
2022/04/08 11:31:26;;;;;;;3.40;1.20;;;26.20;45.20;;;;;;5049487;28;20453;-68
2022/04/08 11:33:53;;;;;;;4.17;1.00;;;25.80;45.40;;;;;;5050735;28;20457;-68
2022/04/08 11:36:24;;;;;;;4.10;1.30;;;25.40;45.80;;;;;;5049648;28;20474;-68
2022/04/08 11:38:51;;;;;;;4.97;2.00;;;25.50;46.40;;;;;;5050460;28;20533;-68
2022/04/08 11:41:23;;;;;;;5.53;2.40;;;25.80;46.10;;;;;;5050345;28;20493;-67
2022/04/08 11:43:50;;;;;;;4.57;1.93;;;25.80;45.30;;;;;;5050103;28;20893;-67
2022/04/08 11:46:18;;;;;;;4.33;1.30;;;26.00;44.40;;;;;;5049136;28;20958;-67
2022/04/08 11:48:49;;;;;;;4.00;1.57;;;25.70;43.00;;;;;;5049846;28;20494;-68
2022/04/08 11:51:19;;;;;;;3.43;1.10;;;25.40;44.20;;;;;;5050748;28;20458;-68
2022/04/08 11:53:48;;;;;;;3.60;1.30;;;25.60;44.40;;;;;;5050348;28;20485;-67
2022/04/08 11:56:21;;;;;;;3.77;1.20;;;25.70;44.60;;;;;;5050187;28;20477;-68
2022/04/08 11:58:59;;;;;;;4.60;1.37;;;25.70;44.80;;;;;;5050147;28;20461;-69
2022/04/08 12:01:30;;;;;;;4.27;1.43;;;25.80;45.60;;;;;;5049634;28;21041;-68
2022/04/08 12:04:00;;;;;;;4.00;1.37;;;25.90;47.80;;;;;;5050337;28;20547;-67
2022/04/08 12:06:35;;;;;;;3.57;1.23;;;26.10;46.60;;;;;;5049724;28;20486;-69
2022/04/08 12:09:02;;;;;;;4.47;1.47;;;26.10;45.20;;;;;;5049592;28;20488;-69
2022/04/08 12:11:31;;;;;;;5.30;1.60;;;25.90;45.90;;;;;;5049157;28;20458;-70
2022/04/08 12:13:58;;;;;;;5.23;1.63;;;26.10;46.20;;;;;;5049888;28;20450;-68
2022/04/08 12:16:31;;;;;;;4.00;1.53;;;26.40;45.30;;;;;;5049560;28;20559;-69
2022/04/08 12:18:59;;;;;;;4.33;1.30;;;26.70;45.70;;;;;;5049532;28;20485;-67
2022/04/08 12:21:28;;;;;;;4.90;1.40;;;26.80;45.30;;;;;;5049498;28;20496;-70
2022/04/08 12:23:57;;;;;;;6.17;4.23;;;26.80;45.50;;;;;;5049644;28;20457;-68
2022/04/08 12:26:26;;;;;;;4.40;2.20;;;26.50;45.60;;;;;;5049865;28;20474;-68
2022/04/08 12:29:06;;;;;;;5.20;1.67;;;26.60;45.60;;;;;;5046259;28;20439;-68
2022/04/08 12:31:33;;;;;;;3.80;1.37;;;26.60;45.80;;;;;;5029809;28;20443;-68
2022/04/08 12:34:02;;;;;;;7.50;1.50;;;26.80;46.20;;;;;;5029560;28;20457;-69
2022/04/08 12:36:30;;;;;;;4.50;1.47;;;27.00;45.20;;;;;;5029271;28;20463;-70
2022/04/08 12:38:57;;;;;;;4.77;1.50;;;27.20;45.40;;;;;;5029731;28;21257;-69
2022/04/08 12:41:25;;;;;;;4.20;1.40;;;27.30;45.00;;;;;;5029481;28;20589;-70
2022/04/08 12:43:54;;;;;;;4.33;1.70;;;27.00;44.40;;;;;;5028361;28;20455;-68
2022/04/08 12:46:22;;;;;;;6.20;1.80;;;27.20;44.30;;;;;;5028852;28;20471;-70
2022/04/08 12:48:49;;;;;;;4.90;1.90;;;27.20;44.10;;;;;;5028577;28;20955;-68
2022/04/08 12:51:17;;;;;;;4.13;1.43;;;27.30;44.10;;;;;;5029024;28;20501;-68